Time;durP1;ratioP1;P1;durP2;ratioP2;P2;SDS_P1;SDS_P2;PMS_P1;PMS_P2;Temp;Humidity;BMP_temperature;BMP_pressure;BME280_temperature;BME280_humidity;BME280_pressure;Samples;Min_cycle;Max_cycle;Signal;HPM_P1;HPM_P2
2023/10/09 00:02:09;;;;;;;15.53;10.90;;;23.40;56.40;;;;;;5046285;28;20517;-76
2023/10/09 00:04:41;;;;;;;15.47;10.80;;;23.40;56.30;;;;;;5054726;28;20454;-77
2023/10/09 00:07:10;;;;;;;13.83;10.20;;;23.30;56.40;;;;;;5043425;28;20429;-76
2023/10/09 00:09:47;;;;;;;15.10;9.80;;;23.40;56.40;;;;;;5046872;28;20442;-76
2023/10/09 00:12:22;;;;;;;12.97;9.80;;;23.30;56.30;;;;;;5048484;28;20428;-76
2023/10/09 00:14:55;;;;;;;15.17;10.23;;;23.30;56.20;;;;;;5049565;28;21002;-76
2023/10/09 00:17:30;;;;;;;13.63;10.27;;;23.30;56.40;;;;;;5056759;28;20450;-76
2023/10/09 00:20:08;;;;;;;14.73;9.50;;;23.30;56.30;;;;;;5057036;28;20430;-76
2023/10/09 00:22:43;;;;;;;13.90;9.00;;;23.30;56.30;;;;;;5056909;28;21058;-76
2023/10/09 00:25:21;;;;;;;16.87;9.80;;;23.30;56.50;;;;;;5052357;28;20441;-76
2023/10/09 00:27:49;;;;;;;13.13;9.90;;;23.30;56.50;;;;;;5047934;28;20488;-76
2023/10/09 00:30:19;;;;;;;14.93;9.50;;;23.30;56.40;;;;;;5056340;28;20445;-76
2023/10/09 00:32:58;;;;;;;17.83;9.90;;;23.30;56.30;;;;;;5055502;28;20512;-76
2023/10/09 00:35:50;;;;;;;12.57;9.37;;;23.30;56.40;;;;;;5045292;28;20438;-76
2023/10/09 00:38:24;;;;;;;13.40;9.80;;;23.30;56.20;;;;;;5056383;28;20432;-76
2023/10/09 00:41:03;;;;;;;17.10;10.77;;;23.30;56.40;;;;;;5040061;28;20533;-77
2023/10/09 00:43:35;;;;;;;13.33;9.60;;;23.30;56.40;;;;;;5055864;28;20505;-76
2023/10/09 00:46:04;;;;;;;16.57;9.87;;;23.20;56.40;;;;;;5055953;28;20489;-75
2023/10/09 00:48:37;;;;;;;12.57;9.30;;;23.20;56.20;;;;;;5056349;28;20432;-75
2023/10/09 00:51:08;;;;;;;13.73;9.10;;;23.20;56.40;;;;;;5058030;28;20488;-77
2023/10/09 00:53:36;;;;;;;12.80;9.03;;;23.20;56.50;;;;;;5056056;28;20413;-77
2023/10/09 00:56:18;;;;;;;12.40;8.97;;;23.20;56.50;;;;;;5054782;28;20501;-77
2023/10/09 00:58:48;;;;;;;9.30;7.90;;;23.20;56.40;;;;;;5047228;28;20480;-77
2023/10/09 01:01:16;;;;;;;13.33;8.60;;;23.20;56.30;;;;;;5056407;28;20450;-77
2023/10/09 01:03:45;;;;;;;11.90;8.90;;;23.20;56.30;;;;;;5055325;28;20449;-76
2023/10/09 01:06:20;;;;;;;11.37;8.33;;;23.20;56.40;;;;;;5055764;28;20469;-77
2023/10/09 01:08:56;;;;;;;9.70;7.90;;;23.20;56.50;;;;;;5055708;28;20477;-77
2023/10/09 01:11:29;;;;;;;13.70;8.27;;;23.20;56.50;;;;;;5055644;28;20448;-77
2023/10/09 01:14:11;;;;;;;13.23;8.60;;;23.10;56.30;;;;;;5043991;28;20485;-76
2023/10/09 01:16:41;;;;;;;13.03;9.43;;;23.10;56.30;;;;;;5053686;28;20474;-77
2023/10/09 01:19:20;;;;;;;13.83;7.90;;;23.10;56.30;;;;;;5049152;28;20465;-76
2023/10/09 01:21:49;;;;;;;10.47;7.83;;;23.10;56.40;;;;;;5046531;28;20423;-76
2023/10/09 01:24:19;;;;;;;9.70;7.47;;;23.10;56.40;;;;;;5055065;28;20565;-77
2023/10/09 01:26:49;;;;;;;10.17;8.10;;;23.10;56.30;;;;;;5055070;28;20470;-76
2023/10/09 01:29:18;;;;;;;9.30;7.60;;;23.10;56.30;;;;;;5048610;28;20482;-76
2023/10/09 01:31:54;;;;;;;11.83;8.33;;;23.00;56.30;;;;;;5054220;28;20454;-76
2023/10/09 01:34:38;;;;;;;9.77;7.40;;;23.10;56.40;;;;;;5054716;28;20941;-76
2023/10/09 01:37:11;;;;;;;10.50;7.20;;;23.10;56.50;;;;;;5048651;28;20446;-76
2023/10/09 01:39:42;;;;;;;9.83;7.20;;;23.00;56.20;;;;;;5053662;28;20481;-76
2023/10/09 01:42:10;;;;;;;9.40;7.40;;;23.00;56.30;;;;;;5048747;28;20478;-77
2023/10/09 01:44:43;;;;;;;8.97;7.80;;;23.00;56.40;;;;;;5052491;28;20503;-76
2023/10/09 01:47:14;;;;;;;9.93;7.37;;;23.00;56.30;;;;;;5055376;28;20504;-75
2023/10/09 01:49:43;;;;;;;8.83;7.10;;;23.00;56.40;;;;;;5062447;28;20454;-75
2023/10/09 01:52:15;;;;;;;9.60;7.60;;;23.00;56.40;;;;;;5048658;28;20498;-76
2023/10/09 01:54:48;;;;;;;10.20;7.40;;;23.00;56.40;;;;;;5052366;28;20829;-76
2023/10/09 01:57:22;;;;;;;9.13;6.73;;;23.00;56.30;;;;;;5039968;28;20446;-76
2023/10/09 01:59:53;;;;;;;7.83;6.80;;;23.00;56.50;;;;;;5042522;28;20471;-76
2023/10/09 02:02:33;;;;;;;11.83;7.60;;;22.90;56.40;;;;;;5034523;28;20452;-75
2023/10/09 02:05:23;;;;;;;13.73;8.00;;;22.90;56.40;;;;;;5037877;28;20506;-76
2023/10/09 02:07:52;;;;;;;7.97;7.17;;;22.90;56.40;;;;;;5055219;28;20539;-76
2023/10/09 02:10:25;;;;;;;9.07;6.47;;;22.90;56.60;;;;;;5047396;28;20458;-76
2023/10/09 02:12:57;;;;;;;11.90;9.07;;;22.90;56.60;;;;;;5053736;28;20505;-75
2023/10/09 02:18:26;;;;;;;13.33;8.70;;;22.90;56.60;;;;;;5104481;27;20511;-76
2023/10/09 02:21:13;;;;;;;13.90;9.70;;;22.80;56.40;;;;;;5087526;28;21008;-76
2023/10/09 02:23:46;;;;;;;12.60;8.97;;;22.80;56.50;;;;;;5088468;28;20464;-76
2023/10/09 02:26:19;;;;;;;9.80;7.70;;;22.80;56.60;;;;;;5105686;28;20453;-76
2023/10/09 02:28:58;;;;;;;11.57;8.10;;;22.80;56.60;;;;;;5105998;28;20444;-77
2023/10/09 02:31:35;;;;;;;9.50;7.27;;;22.80;56.60;;;;;;5100278;28;20444;-76
2023/10/09 02:34:07;;;;;;;10.80;7.17;;;22.80;56.70;;;;;;5082740;28;20499;-76
2023/10/09 02:36:38;;;;;;;11.13;7.10;;;22.70;56.60;;;;;;5084971;28;20447;-76
2023/10/09 02:39:07;;;;;;;10.50;7.33;;;22.70;56.70;;;;;;5091786;28;20491;-77
2023/10/09 02:41:49;;;;;;;8.93;6.70;;;22.70;56.80;;;;;;5091438;28;20425;-77
2023/10/09 02:44:24;;;;;;;8.63;6.27;;;22.70;56.80;;;;;;5084809;28;20452;-76
2023/10/09 02:46:57;;;;;;;8.77;6.13;;;22.60;56.80;;;;;;5079989;28;20452;-76
2023/10/09 02:49:28;;;;;;;7.60;5.80;;;22.70;56.80;;;;;;5086209;28;20490;-76
2023/10/09 02:51:56;;;;;;;7.93;5.90;;;22.60;56.80;;;;;;5091172;28;20471;-77
2023/10/09 02:54:35;;;;;;;9.70;6.33;;;22.50;56.90;;;;;;5082491;28;20445;-76
2023/10/09 02:57:07;;;;;;;13.20;6.43;;;22.50;56.80;;;;;;5074901;28;20473;-77
2023/10/09 02:59:38;;;;;;;10.80;6.17;;;22.50;56.90;;;;;;5090911;28;20455;-76
2023/10/09 03:02:07;;;;;;;6.33;5.70;;;22.50;56.90;;;;;;5091169;28;20441;-77
2023/10/09 03:04:38;;;;;;;7.20;5.77;;;22.50;56.90;;;;;;5090325;28;20452;-76
2023/10/09 03:07:07;;;;;;;8.40;6.10;;;22.50;56.90;;;;;;5081103;28;20461;-77
2023/10/09 03:09:35;;;;;;;8.30;5.60;;;22.50;57.00;;;;;;5081216;28;20445;-76
2023/10/09 03:12:05;;;;;;;7.23;5.60;;;22.50;56.90;;;;;;5078082;28;20513;-76
2023/10/09 03:14:38;;;;;;;5.93;5.23;;;22.50;56.90;;;;;;5085560;28;20437;-76
2023/10/09 03:17:07;;;;;;;8.70;5.77;;;22.40;57.00;;;;;;5081134;28;20447;-75
2023/10/09 03:19:37;;;;;;;6.83;5.60;;;22.40;57.00;;;;;;5089346;28;20461;-76
2023/10/09 03:22:09;;;;;;;7.63;5.50;;;22.40;56.90;;;;;;5077535;28;20468;-76
2023/10/09 03:24:37;;;;;;;9.90;5.53;;;22.50;56.90;;;;;;5077609;28;20446;-76
2023/10/09 03:27:06;;;;;;;7.40;5.47;;;22.40;56.90;;;;;;5080149;28;20467;-76
2023/10/09 03:29:35;;;;;;;7.77;5.33;;;22.40;57.00;;;;;;5076565;28;20542;-76
2023/10/09 03:32:04;;;;;;;6.63;5.27;;;22.40;56.90;;;;;;5075588;28;20528;-76
2023/10/09 03:34:32;;;;;;;5.27;4.60;;;22.40;56.90;;;;;;5075816;28;20516;-77
2023/10/09 03:37:05;;;;;;;7.23;4.90;;;22.40;56.90;;;;;;5064740;28;20524;-77
2023/10/09 03:39:38;;;;;;;7.80;5.70;;;22.40;57.00;;;;;;5070699;28;20548;-77
2023/10/09 03:42:19;;;;;;;5.50;5.00;;;22.40;56.90;;;;;;5067685;28;20417;-76
2023/10/09 03:44:52;;;;;;;8.67;5.53;;;22.40;56.80;;;;;;5067059;28;20453;-76
2023/10/09 03:47:24;;;;;;;6.17;5.20;;;22.40;56.90;;;;;;5060910;28;20498;-77
2023/10/09 03:49:53;;;;;;;5.27;4.77;;;22.40;56.90;;;;;;5065769;28;20451;-76
2023/10/09 03:52:25;;;;;;;6.67;4.83;;;22.40;56.80;;;;;;5069166;28;20446;-78
2023/10/09 03:54:54;;;;;;;6.20;5.17;;;22.40;56.80;;;;;;5074877;28;20529;-76
2023/10/09 03:57:23;;;;;;;5.70;4.83;;;22.40;56.90;;;;;;5058253;28;20474;-76
2023/10/09 03:59:51;;;;;;;7.07;5.43;;;22.40;56.90;;;;;;5056586;28;20452;-77
2023/10/09 04:02:22;;;;;;;6.00;5.40;;;22.40;56.80;;;;;;5070010;28;20459;-77
2023/10/09 04:04:51;;;;;;;7.17;5.10;;;22.40;56.90;;;;;;5073178;28;20465;-77
2023/10/09 04:07:21;;;;;;;7.70;5.27;;;22.30;56.80;;;;;;5066853;28;20525;-76
2023/10/09 04:10:03;;;;;;;5.20;4.60;;;22.30;57.00;;;;;;5063842;28;20454;-77
2023/10/09 04:12:35;;;;;;;5.70;5.10;;;22.30;56.90;;;;;;5074403;28;20449;-76
2023/10/09 04:15:06;;;;;;;11.37;8.40;;;22.30;57.00;;;;;;5074148;28;20444;-76
2023/10/09 04:17:35;;;;;;;14.10;8.93;;;22.30;56.90;;;;;;5074105;28;20568;-76
2023/10/09 04:22:59;;;;;;;11.50;7.57;;;22.30;56.90;;;;;;5065207;28;20438;-76
2023/10/09 04:25:38;;;;;;;8.80;6.77;;;22.30;57.10;;;;;;5062300;28;20494;-76
2023/10/09 04:28:09;;;;;;;10.37;6.77;;;22.30;57.00;;;;;;5070652;28;20541;-76
2023/10/09 04:30:42;;;;;;;10.23;6.93;;;22.30;57.10;;;;;;5066812;28;20960;-76
2023/10/09 04:33:28;;;;;;;8.67;7.13;;;22.30;57.10;;;;;;5062250;28;20469;-76
2023/10/09 04:38:55;;;;;;;11.50;7.30;;;22.30;57.00;;;;;;5061910;28;20469;-76
2023/10/09 04:41:50;;;;;;;11.37;7.23;;;22.30;56.90;;;;;;5066368;28;20460;-76
2023/10/09 04:44:18;;;;;;;11.60;7.27;;;22.20;57.00;;;;;;5069101;28;20443;-77
2023/10/09 04:47:18;;;;;;;11.03;7.67;;;22.30;57.20;;;;;;5069867;28;20454;-77
2023/10/09 04:50:01;;;;;;;13.63;9.10;;;22.30;57.10;;;;;;5065923;28;20413;-75
2023/10/09 04:55:19;;;;;;;10.07;7.70;;;22.20;56.90;;;;;;5085654;22;20455;-73
2023/10/09 04:58:02;;;;;;;10.27;7.37;;;22.20;57.10;;;;;;5070706;28;20481;-73
2023/10/09 05:00:48;;;;;;;14.17;8.17;;;22.20;57.20;;;;;;5065056;28;20438;-73
2023/10/09 05:03:28;;;;;;;11.53;8.17;;;22.20;57.20;;;;;;5063962;28;20450;-74
2023/10/09 05:05:59;;;;;;;12.50;8.17;;;22.20;57.20;;;;;;5078709;28;20452;-73
2023/10/09 05:08:29;;;;;;;12.87;8.23;;;22.20;57.20;;;;;;5092103;28;20428;-73
2023/10/09 05:11:15;;;;;;;11.50;7.80;;;22.20;57.20;;;;;;5090699;28;20478;-73
2023/10/09 05:13:57;;;;;;;15.90;9.67;;;22.20;57.20;;;;;;5090680;28;20411;-73
2023/10/09 05:16:26;;;;;;;18.23;11.53;;;22.20;57.20;;;;;;5084548;28;20463;-73
2023/10/09 05:18:56;;;;;;;20.97;13.40;;;22.20;57.20;;;;;;5090931;28;20975;-73
2023/10/09 05:21:36;;;;;;;20.90;13.90;;;22.20;57.10;;;;;;5091986;28;20447;-74
2023/10/09 05:24:16;;;;;;;19.00;12.80;;;22.20;57.20;;;;;;5091956;28;20458;-74
2023/10/09 05:26:51;;;;;;;20.70;12.90;;;22.20;57.30;;;;;;5090716;28;20521;-73
2023/10/09 05:29:34;;;;;;;19.90;12.90;;;22.20;57.50;;;;;;5083841;28;20429;-74
2023/10/09 05:32:05;;;;;;;19.97;12.63;;;22.20;57.30;;;;;;5093059;28;20539;-76
2023/10/09 05:35:04;;;;;;;21.50;14.00;;;22.20;57.40;;;;;;5090944;28;20947;-74
2023/10/09 05:37:25;;;;;;;23.17;13.40;;;22.20;57.40;;;;;;5075520;28;20521;-73
2023/10/09 05:40:22;;;;;;;18.03;13.20;;;22.10;58.10;;;;;;5090823;28;20447;-74
2023/10/09 05:42:57;;;;;;;18.20;12.57;;;22.20;57.50;;;;;;5091104;28;20431;-75
2023/10/09 05:46:07;;;;;;;22.77;12.87;;;22.20;57.50;;;;;;5083216;28;20434;-75
2023/10/09 05:51:19;;;;;;;25.23;13.30;;;22.20;57.90;;;;;;5088901;28;20475;-74
2023/10/09 06:04:54;;;;;;;22.90;15.07;;;22.10;57.70;;;;;;5090529;28;20440;-74
2023/10/09 06:07:49;;;;;;;22.43;14.07;;;22.10;57.70;;;;;;5083421;28;20818;-74
2023/10/09 06:10:19;;;;;;;24.13;15.00;;;22.10;57.80;;;;;;5090729;28;20452;-74
2023/10/09 06:12:56;;;;;;;26.67;15.83;;;22.10;57.70;;;;;;5091769;28;20468;-74
2023/10/09 06:15:51;;;;;;;22.33;14.47;;;22.10;57.60;;;;;;5083977;28;20484;-74
2023/10/09 06:21:19;;;;;;;25.70;16.00;;;22.10;57.60;;;;;;5091246;28;20513;-74
2023/10/09 06:26:33;;;;;;;28.27;17.40;;;22.20;57.70;;;;;;5080626;28;20431;-75
2023/10/09 06:29:13;;;;;;;27.20;17.67;;;22.20;57.60;;;;;;5088732;28;20518;-75
2023/10/09 06:31:59;;;;;;;29.53;18.03;;;22.10;57.60;;;;;;5092160;28;20527;-75
2023/10/09 06:34:32;;;;;;;34.70;19.70;;;22.20;57.70;;;;;;5088287;28;20460;-75
2023/10/09 06:37:06;;;;;;;28.17;17.87;;;22.10;57.60;;;;;;5089072;28;20495;-75
2023/10/09 06:39:50;;;;;;;29.03;18.20;;;22.10;57.40;;;;;;5091646;28;20508;-75
2023/10/09 06:42:33;;;;;;;31.60;19.23;;;22.20;57.50;;;;;;5091980;28;20456;-75
2023/10/09 06:45:06;;;;;;;30.20;19.10;;;22.20;57.60;;;;;;5091863;28;20440;-75
2023/10/09 06:47:40;;;;;;;31.13;19.30;;;22.20;57.50;;;;;;5083894;28;20440;-74
2023/10/09 06:50:24;;;;;;;30.27;19.70;;;22.20;57.50;;;;;;5090709;28;20469;-75
2023/10/09 06:53:19;;;;;;;28.70;19.10;;;22.20;57.50;;;;;;5087832;28;20409;-75
2023/10/09 06:56:01;;;;;;;27.97;19.03;;;22.20;57.60;;;;;;5088600;28;20562;-74
2023/10/09 06:58:41;;;;;;;33.03;20.07;;;22.20;57.50;;;;;;5082490;28;20941;-74
2023/10/09 07:01:19;;;;;;;34.60;20.80;;;22.20;57.50;;;;;;5081149;28;20503;-75
2023/10/09 07:03:53;;;;;;;31.03;19.93;;;22.20;57.40;;;;;;5071685;28;20411;-74
2023/10/09 07:06:48;;;;;;;33.20;19.57;;;22.20;57.40;;;;;;5092297;28;20467;-76
2023/10/09 07:09:18;;;;;;;35.33;20.93;;;22.30;57.60;;;;;;5094241;28;20520;-76
2023/10/09 07:12:03;;;;;;;35.10;19.80;;;22.20;57.60;;;;;;5094499;28;20498;-76
2023/10/09 07:17:23;;;;;;;32.27;20.50;;;22.20;57.60;;;;;;5083843;28;20453;-76
2023/10/09 07:20:08;;;;;;;34.00;20.50;;;22.20;57.40;;;;;;5073846;28;20471;-76
2023/10/09 07:22:52;;;;;;;35.70;19.80;;;22.20;57.40;;;;;;5087110;28;20489;-76
2023/10/09 07:25:54;;;;;;;32.37;19.67;;;22.30;57.50;;;;;;5074606;28;20495;-76
2023/10/09 07:31:27;;;;;;;30.43;19.47;;;22.30;57.40;;;;;;5080884;28;20468;-76
2023/10/09 07:33:57;;;;;;;31.30;18.97;;;22.30;57.30;;;;;;5093684;28;20440;-76
2023/10/09 07:36:37;;;;;;;28.80;18.07;;;22.30;57.40;;;;;;5087907;28;20495;-75
2023/10/09 07:39:17;;;;;;;28.27;17.90;;;22.30;57.30;;;;;;5093668;28;20471;-74
2023/10/09 07:41:56;;;;;;;30.60;18.60;;;22.40;57.40;;;;;;5074043;28;20442;-77
2023/10/09 07:44:42;;;;;;;31.10;18.50;;;22.30;57.30;;;;;;5093223;28;20436;-76
2023/10/09 07:47:45;;;;;;;27.33;18.07;;;22.40;57.30;;;;;;5094016;28;21020;-75
2023/10/09 07:50:21;;;;;;;25.80;17.23;;;22.30;57.50;;;;;;5083453;28;20436;-76
2023/10/09 07:52:49;;;;;;;30.90;18.03;;;22.40;57.50;;;;;;5097486;28;20441;-77
2023/10/09 07:55:39;;;;;;;29.33;17.70;;;22.40;57.50;;;;;;5093182;28;20441;-78
2023/10/09 07:58:11;;;;;;;26.83;17.33;;;22.40;57.40;;;;;;5075723;28;20438;-76
2023/10/09 08:01:06;;;;;;;28.70;17.70;;;22.40;57.40;;;;;;5079503;28;20480;-77
2023/10/09 08:03:35;;;;;;;24.70;16.53;;;22.40;57.40;;;;;;5077689;28;20441;-77
2023/10/09 08:06:37;;;;;;;28.00;17.07;;;22.40;57.40;;;;;;5086130;28;20457;-77
2023/10/09 08:12:38;;;;;;;25.77;16.60;;;22.40;57.50;;;;;;5042000;28;20954;-76
2023/10/09 08:15:21;;;;;;;25.67;15.97;;;22.40;57.40;;;;;;5081992;28;20444;-76
2023/10/09 08:17:53;;;;;;;28.73;16.30;;;22.50;57.50;;;;;;5074724;28;20427;-77
2023/10/09 08:20:25;;;;;;;25.10;16.13;;;22.50;57.40;;;;;;5075159;28;20508;-77
2023/10/09 08:22:55;;;;;;;24.77;15.70;;;22.50;57.40;;;;;;5088821;28;20483;-77
2023/10/09 08:25:31;;;;;;;25.23;16.10;;;22.50;57.50;;;;;;5083436;28;20434;-77
2023/10/09 08:31:02;;;;;;;21.30;14.17;;;22.50;57.60;;;;;;5086395;28;20476;-77
2023/10/09 08:33:40;;;;;;;20.60;14.00;;;22.50;57.60;;;;;;5090288;28;20441;-77
2023/10/09 08:36:14;;;;;;;23.33;15.27;;;22.50;57.50;;;;;;5087291;28;20465;-77
2023/10/09 08:38:43;;;;;;;23.47;15.10;;;22.50;57.70;;;;;;5088862;28;20444;-77
2023/10/09 08:41:23;;;;;;;23.03;15.00;;;22.50;57.70;;;;;;5084301;28;20503;-77
2023/10/09 08:43:53;;;;;;;22.63;14.73;;;22.50;57.50;;;;;;5087123;28;20448;-76
2023/10/09 08:46:23;;;;;;;20.37;13.80;;;22.60;57.80;;;;;;5084107;28;20811;-76
2023/10/09 08:48:51;;;;;;;24.63;14.10;;;22.60;57.60;;;;;;5089249;28;20432;-76
2023/10/09 08:51:20;;;;;;;22.70;14.83;;;22.60;57.60;;;;;;5088071;28;20494;-76
2023/10/09 08:53:48;;;;;;;19.50;13.43;;;22.60;57.40;;;;;;5079556;28;20449;-76
2023/10/09 08:56:22;;;;;;;21.63;13.80;;;22.60;57.50;;;;;;5091436;28;20503;-76
2023/10/09 08:58:53;;;;;;;19.50;13.10;;;22.70;57.40;;;;;;5092584;28;20488;-75
2023/10/09 09:01:21;;;;;;;20.23;13.03;;;22.70;57.50;;;;;;5091863;28;20472;-77
2023/10/09 09:03:50;;;;;;;17.83;12.13;;;22.70;57.50;;;;;;5091093;28;20448;-77
2023/10/09 09:06:19;;;;;;;20.60;13.07;;;22.70;57.60;;;;;;5074665;28;20471;-76
2023/10/09 09:08:47;;;;;;;19.17;12.70;;;22.80;57.60;;;;;;5075844;28;20539;-76
2023/10/09 09:11:17;;;;;;;19.97;12.70;;;22.70;57.60;;;;;;5093371;28;20514;-76
2023/10/09 09:13:52;;;;;;;18.40;12.23;;;22.70;57.60;;;;;;5093263;28;20524;-76
2023/10/09 09:16:29;;;;;;;15.90;11.20;;;22.80;57.60;;;;;;5092390;28;20626;-76
2023/10/09 09:19:04;;;;;;;18.73;11.60;;;22.80;57.70;;;;;;5093431;28;20407;-76
2023/10/09 09:21:38;;;;;;;18.27;11.70;;;22.80;57.70;;;;;;5081294;28;20504;-76
2023/10/09 09:24:26;;;;;;;19.10;11.70;;;22.80;57.80;;;;;;5079168;28;20440;-76
2023/10/09 09:26:59;;;;;;;18.47;12.00;;;22.80;57.80;;;;;;5071810;28;20465;-76
2023/10/09 09:29:39;;;;;;;16.47;10.97;;;22.80;57.80;;;;;;5071673;28;20936;-76
2023/10/09 09:32:17;;;;;;;16.97;11.80;;;22.80;57.70;;;;;;5072188;28;20465;-76
2023/10/09 09:34:48;;;;;;;16.10;11.20;;;22.90;57.80;;;;;;5084628;28;20416;-76
2023/10/09 09:37:20;;;;;;;18.07;10.87;;;22.90;57.80;;;;;;5091721;28;20452;-76
2023/10/09 09:39:51;;;;;;;18.87;11.50;;;22.90;57.90;;;;;;5075852;28;20551;-76
2023/10/09 09:42:26;;;;;;;18.50;10.37;;;22.90;58.50;;;;;;5083320;28;20459;-76
2023/10/09 09:44:55;;;;;;;18.53;10.83;;;22.90;57.80;;;;;;5081796;28;20516;-75
2023/10/09 09:47:26;;;;;;;14.53;10.07;;;22.90;57.80;;;;;;5092392;28;20472;-76
2023/10/09 09:49:59;;;;;;;16.07;10.53;;;22.90;57.80;;;;;;5086401;28;20533;-76
2023/10/09 09:52:29;;;;;;;17.93;10.00;;;22.90;57.90;;;;;;5078640;28;20440;-76
2023/10/09 09:54:58;;;;;;;15.93;10.10;;;22.90;57.90;;;;;;5077833;28;20901;-76
2023/10/09 09:57:26;;;;;;;14.47;9.77;;;22.90;57.80;;;;;;5072692;28;20499;-76
2023/10/09 09:59:56;;;;;;;16.13;9.63;;;23.00;57.90;;;;;;5086053;28;20518;-76
2023/10/09 10:02:33;;;;;;;12.83;8.93;;;22.90;58.10;;;;;;5072293;28;20469;-76
2023/10/09 10:05:05;;;;;;;16.30;10.13;;;22.90;58.10;;;;;;5090361;28;20449;-76
2023/10/09 10:07:41;;;;;;;15.07;9.43;;;23.00;58.20;;;;;;5085861;28;20459;-76
2023/10/09 10:10:39;;;;;;;11.53;8.60;;;23.00;57.90;;;;;;5092473;28;20538;-76
2023/10/09 10:13:14;;;;;;;13.03;8.80;;;23.00;58.10;;;;;;5072175;28;20444;-76
2023/10/09 10:16:08;;;;;;;11.87;9.03;;;23.00;58.30;;;;;;5074981;28;20472;-76
2023/10/09 10:18:59;;;;;;;13.10;8.80;;;23.00;58.30;;;;;;5075290;28;20939;-75
2023/10/09 10:24:52;;;;;;;12.03;9.00;;;23.00;58.40;;;;;;5070189;28;20878;-76
2023/10/09 10:27:26;;;;;;;12.10;8.63;;;23.00;58.40;;;;;;5071382;28;20563;-76
2023/10/09 10:30:32;;;;;;;10.83;8.07;;;23.00;58.50;;;;;;5077059;28;20436;-76
2023/10/09 10:33:11;;;;;;;12.43;7.90;;;23.00;58.50;;;;;;5087461;28;20464;-77
2023/10/09 10:35:46;;;;;;;13.20;9.20;;;23.00;58.40;;;;;;5074565;28;20488;-77
2023/10/09 10:38:32;;;;;;;14.17;8.37;;;23.10;58.60;;;;;;5075048;28;20436;-78
2023/10/09 10:41:12;;;;;;;11.00;8.30;;;23.10;58.50;;;;;;5077481;28;20478;-77
2023/10/09 10:44:12;;;;;;;12.57;7.87;;;23.10;58.80;;;;;;5091362;28;20426;-77
2023/10/09 10:46:44;;;;;;;9.87;7.70;;;23.10;58.60;;;;;;5097357;28;20469;-77
2023/10/09 10:49:20;;;;;;;13.00;8.43;;;23.10;58.50;;;;;;5091089;28;20494;-77
2023/10/09 10:52:00;;;;;;;13.83;8.00;;;23.10;58.50;;;;;;5077409;28;20437;-77
2023/10/09 10:55:05;;;;;;;11.30;7.03;;;23.10;58.60;;;;;;5076548;28;20473;-77
2023/10/09 10:57:53;;;;;;;10.90;7.63;;;23.10;58.80;;;;;;5129527;22;20548;-75
2023/10/09 11:03:18;;;;;;;9.60;7.67;;;23.20;58.50;;;;;;5096642;28;20468;-75
2023/10/09 11:05:50;;;;;;;12.47;8.03;;;23.30;58.60;;;;;;5098930;28;20474;-76
2023/10/09 11:08:27;;;;;;;10.57;7.30;;;23.30;58.70;;;;;;5105836;28;20443;-78
2023/10/09 11:11:15;;;;;;;10.93;6.73;;;23.30;58.60;;;;;;5096738;28;20445;-76
2023/10/09 11:13:58;;;;;;;8.53;6.83;;;23.30;58.60;;;;;;5094959;28;20441;-76
2023/10/09 11:16:42;;;;;;;9.57;7.07;;;23.30;58.50;;;;;;5102712;28;20468;-74
2023/10/09 11:19:28;;;;;;;9.03;7.10;;;23.40;58.60;;;;;;5100829;28;20468;-74
2023/10/09 11:25:18;;;;;;;8.82;6.50;;;23.50;58.50;;;;;;5097298;27;1194159;-76
2023/10/09 11:27:50;;;;;;;8.03;6.70;;;23.60;59.30;;;;;;5096962;28;20293;-76
2023/10/09 11:30:32;;;;;;;10.37;7.23;;;23.70;58.60;;;;;;5088728;28;20440;-76
2023/10/09 11:33:07;;;;;;;9.90;6.67;;;23.60;58.40;;;;;;5092931;28;20403;-74
2023/10/09 11:35:35;;;;;;;9.27;6.60;;;23.70;58.60;;;;;;5090546;28;20436;-76
2023/10/09 11:38:20;;;;;;;8.27;6.80;;;23.80;58.50;;;;;;5093686;28;20446;-75
2023/10/09 11:41:05;;;;;;;7.43;6.60;;;23.80;58.30;;;;;;5098550;28;20431;-76
2023/10/09 11:43:54;;;;;;;8.53;7.00;;;23.80;58.40;;;;;;5107048;28;20446;-76
2023/10/09 11:46:39;;;;;;;8.67;6.50;;;23.80;58.20;;;;;;5088193;28;20468;-76
2023/10/09 11:52:35;;;;;;;10.13;6.47;;;23.80;58.60;;;;;;5108375;28;20443;-76
2023/10/09 11:54:58;;;;;;;9.30;6.77;;;23.80;58.50;;;;;;5110215;28;20451;-77
2023/10/09 11:57:31;;;;;;;9.20;6.50;;;23.80;58.60;;;;;;5128535;28;20464;-76
2023/10/09 12:00:00;;;;;;;8.80;6.23;;;23.80;58.90;;;;;;5122477;28;20435;-77
2023/10/09 12:02:28;;;;;;;9.03;6.03;;;23.90;58.80;;;;;;5117702;28;20442;-77
2023/10/09 12:04:57;;;;;;;8.87;6.10;;;23.90;58.80;;;;;;5101309;28;20492;-77
2023/10/09 12:07:25;;;;;;;10.67;6.07;;;24.00;58.90;;;;;;5106115;28;20465;-77
2023/10/09 12:09:56;;;;;;;9.07;6.23;;;24.40;59.60;;;;;;5109457;28;20425;-77
2023/10/09 12:12:26;;;;;;;7.53;5.57;;;25.30;58.40;;;;;;5101123;28;20445;-77
2023/10/09 12:14:57;;;;;;;6.83;5.47;;;25.50;56.70;;;;;;5105538;28;20567;-77
2023/10/09 12:17:25;;;;;;;7.00;5.50;;;25.60;56.90;;;;;;5096765;28;20439;-77
2023/10/09 12:19:56;;;;;;;6.40;4.93;;;26.00;56.60;;;;;;5096839;28;20546;-77
2023/10/09 12:22:26;;;;;;;5.60;5.03;;;26.00;55.40;;;;;;5107449;28;20421;-77
2023/10/09 12:24:56;;;;;;;7.77;5.20;;;25.80;55.40;;;;;;5096001;28;20556;-76
2023/10/09 12:27:24;;;;;;;10.10;6.20;;;25.60;56.00;;;;;;5098088;28;20469;-77
2023/10/09 12:29:52;;;;;;;7.33;6.07;;;25.40;56.30;;;;;;5108771;28;20444;-76
2023/10/09 12:32:22;;;;;;;5.93;5.30;;;25.20;56.80;;;;;;5108947;28;20451;-76
2023/10/09 12:34:52;;;;;;;6.57;5.47;;;25.10;57.10;;;;;;5104230;28;20444;-77
2023/10/09 12:37:20;;;;;;;8.00;5.43;;;25.00;57.50;;;;;;5092271;28;20435;-77
2023/10/09 12:39:49;;;;;;;6.97;5.57;;;24.90;57.70;;;;;;5078043;28;20445;-77
2023/10/09 12:42:17;;;;;;;8.00;5.40;;;24.80;57.80;;;;;;5095778;28;20415;-77
2023/10/09 12:44:46;;;;;;;8.47;5.80;;;24.80;58.10;;;;;;5089121;28;20472;-77
2023/10/09 12:47:14;;;;;;;5.20;4.70;;;24.60;58.20;;;;;;5081447;28;20472;-77
2023/10/09 12:49:45;;;;;;;7.23;4.90;;;24.60;58.40;;;;;;5081651;28;20491;-76
2023/10/09 12:52:16;;;;;;;6.70;5.17;;;24.60;58.50;;;;;;5094677;28;20420;-77
2023/10/09 12:54:46;;;;;;;4.93;4.50;;;24.60;58.60;;;;;;5095472;28;20445;-79
2023/10/09 12:57:15;;;;;;;5.80;4.73;;;24.60;58.70;;;;;;5090352;28;20460;-77
2023/10/09 12:59:45;;;;;;;4.80;4.33;;;24.60;58.80;;;;;;5092847;28;20458;-79
2023/10/09 13:02:27;;;;;;;7.80;4.97;;;24.60;58.80;;;;;;5090038;28;20447;-79
2023/10/09 13:04:59;;;;;;;8.40;4.90;;;24.50;58.80;;;;;;5096836;28;20465;-79
2023/10/09 13:07:29;;;;;;;6.97;4.60;;;24.40;58.90;;;;;;5099338;28;20428;-78
2023/10/09 13:10:12;;;;;;;6.00;4.47;;;24.40;59.00;;;;;;5084998;28;20450;-79
2023/10/09 13:12:41;;;;;;;6.80;5.07;;;24.40;59.00;;;;;;5092146;28;20407;-77
2023/10/09 13:15:10;;;;;;;6.03;5.10;;;24.40;59.20;;;;;;5091316;28;20408;-78
2023/10/09 13:17:38;;;;;;;6.40;4.67;;;24.40;59.20;;;;;;5087558;28;20442;-78
2023/10/09 13:20:13;;;;;;;4.93;4.40;;;24.40;59.30;;;;;;5093691;28;20448;-78
2023/10/09 13:22:42;;;;;;;5.00;4.50;;;24.40;60.00;;;;;;5099018;28;20443;-79
2023/10/09 13:25:16;;;;;;;6.10;4.50;;;24.40;59.40;;;;;;5099456;28;20461;-79
2023/10/09 13:28:03;;;;;;;5.70;4.23;;;24.40;59.30;;;;;;5085502;28;20415;-80
2023/10/09 13:30:39;;;;;;;6.33;4.53;;;24.40;59.20;;;;;;5089583;28;20528;-79
2023/10/09 13:33:08;;;;;;;8.07;3.70;;;24.40;59.30;;;;;;5086123;28;20533;-79
2023/10/09 13:35:44;;;;;;;5.10;4.37;;;24.40;59.40;;;;;;5080556;28;20420;-79
2023/10/09 13:38:12;;;;;;;5.77;4.43;;;24.40;59.40;;;;;;5089705;28;20437;-79
2023/10/09 13:40:40;;;;;;;6.60;4.43;;;24.40;59.50;;;;;;5086677;28;20441;-79
2023/10/09 13:43:16;;;;;;;11.03;4.30;;;24.40;59.50;;;;;;5086173;28;20482;-79
2023/10/09 13:45:49;;;;;;;4.23;3.83;;;24.40;59.60;;;;;;5087082;28;20988;-79
2023/10/09 13:48:20;;;;;;;4.80;4.03;;;24.40;59.30;;;;;;5101367;28;20426;-79
2023/10/09 13:50:52;;;;;;;4.60;4.20;;;24.40;59.50;;;;;;5078949;28;20533;-78
2023/10/09 13:53:21;;;;;;;6.20;4.10;;;24.40;59.60;;;;;;5086100;28;20441;-79
2023/10/09 13:55:48;;;;;;;5.00;3.93;;;24.40;59.60;;;;;;5092451;28;20473;-79
2023/10/09 13:58:20;;;;;;;5.50;3.83;;;24.40;59.70;;;;;;5093050;28;20429;-76
2023/10/09 14:00:49;;;;;;;4.80;3.70;;;24.40;59.60;;;;;;5087980;28;20424;-77
2023/10/09 14:03:19;;;;;;;5.67;3.80;;;24.40;59.70;;;;;;5084244;28;20424;-77
2023/10/09 14:05:54;;;;;;;3.73;3.23;;;24.40;59.70;;;;;;5082569;28;20468;-78
2023/10/09 14:08:24;;;;;;;3.70;3.40;;;24.40;59.60;;;;;;5092334;28;20486;-77
2023/10/09 14:10:51;;;;;;;5.37;3.83;;;24.40;59.60;;;;;;5090168;28;20444;-77
2023/10/09 14:13:25;;;;;;;4.40;4.00;;;24.40;59.70;;;;;;5084128;28;20923;-79
2023/10/09 14:15:54;;;;;;;5.13;3.70;;;24.40;59.70;;;;;;5090746;28;20460;-78